createdAt,value
2023-01-15T00:00:57.981Z,99318.00
2023-01-15T00:03:59.557Z,99322.78
2023-01-15T00:07:02.218Z,99318.03
2023-01-15T00:10:04.337Z,99315.53
2023-01-15T00:13:07.768Z,99315.00
2023-01-15T00:16:13.853Z,99321.06
2023-01-15T00:19:15.560Z,99334.16
2023-01-15T00:22:18.411Z,99328.88
2023-01-15T00:29:01.769Z,99315.44
2023-01-15T00:32:06.918Z,99312.47
2023-01-15T00:35:12.943Z,99304.56
2023-01-15T00:38:15.971Z,99289.97
2023-01-15T00:41:18.883Z,99279.66
2023-01-15T00:44:21.869Z,99274.19
2023-01-15T00:47:24.802Z,99271.16
2023-01-15T00:50:26.419Z,99284.63
2023-01-15T00:53:29.367Z,99284.84
2023-01-15T00:56:32.992Z,99298.34
2023-01-15T00:59:35.285Z,99287.00
2023-01-15T01:02:38.170Z,99285.66
2023-01-15T01:05:39.782Z,99259.06
2023-01-15T01:08:42.848Z,99275.16
2023-01-15T01:11:45.943Z,99275.06
2023-01-15T01:14:48.238Z,99281.66
2023-01-15T01:17:51.148Z,99269.09
2023-01-15T01:20:53.000Z,99280.59
2023-01-15T01:23:55.872Z,99273.53
2023-01-15T01:26:57.403Z,99295.38
2023-01-15T01:30:00.970Z,99286.03
2023-01-15T01:33:02.476Z,99276.91
2023-01-15T01:36:07.774Z,99281.38
2023-01-15T01:42:36.972Z,99256.63
2023-01-15T01:45:39.193Z,99251.22
2023-01-15T01:48:40.827Z,99257.22
2023-01-15T01:51:46.445Z,99259.06
2023-01-15T01:54:51.195Z,99261.59
2023-01-15T01:57:56.356Z,99258.91
2023-01-15T02:01:01.258Z,99273.13
2023-01-15T02:04:07.084Z,99256.63
2023-01-15T02:07:09.929Z,99260.78
2023-01-15T02:10:15.510Z,99266.75
2023-01-15T02:13:26.236Z,99261.06
2023-01-15T02:16:36.388Z,99266.03
2023-01-15T02:19:49.821Z,99262.00
2023-01-15T02:23:26.512Z,99269.28
2023-01-15T02:30:29.730Z,99261.13
2023-01-15T02:33:35.284Z,99273.72
2023-01-15T02:36:42.371Z,99249.88
2023-01-15T02:39:47.516Z,99258.72
2023-01-15T02:46:16.191Z,99245.34
2023-01-15T02:49:20.863Z,99244.84
2023-01-15T02:52:29.073Z,99237.72
2023-01-15T02:55:34.896Z,99246.47
2023-01-15T02:58:42.782Z,99239.06
2023-01-15T03:01:49.576Z,99253.88
2023-01-15T03:04:55.741Z,99256.66
2023-01-15T03:08:00.916Z,99248.47
2023-01-15T03:11:07.794Z,99250.16
2023-01-15T03:14:20.085Z,99255.09
2023-01-15T03:17:29.490Z,99245.47
2023-01-15T03:20:34.703Z,99240.81
2023-01-15T03:23:41.771Z,99254.72
2023-01-15T03:26:43.664Z,99250.94
2023-01-15T03:29:49.493Z,99249.84
2023-01-15T03:32:51.164Z,99241.97
2023-01-15T03:35:56.871Z,99258.06
2023-01-15T03:39:00.472Z,99250.06
2023-01-15T03:42:14.300Z,99249.47
2023-01-15T03:45:24.634Z,99264.06
2023-01-15T03:48:34.239Z,99308.31
2023-01-15T03:51:43.718Z,99307.59
2023-01-15T03:54:54.176Z,99313.56
2023-01-15T03:58:00.398Z,99315.81
2023-01-15T04:01:05.767Z,99322.75
2023-01-15T04:04:09.418Z,99317.63
2023-01-15T04:07:13.056Z,99351.81
2023-01-15T04:10:14.734Z,99362.44
2023-01-15T04:13:37.642Z,99374.47
2023-01-15T04:16:40.047Z,99397.97
2023-01-15T04:19:44.310Z,99397.41
2023-01-15T04:22:45.847Z,99409.31
2023-01-15T04:25:48.877Z,99410.69
2023-01-15T04:28:50.472Z,99415.53
2023-01-15T04:31:58.069Z,99409.78
2023-01-15T04:34:59.792Z,99412.72
2023-01-15T04:38:01.633Z,99417.84
2023-01-15T04:41:22.207Z,99420.94
2023-01-15T04:44:26.912Z,99420.94
2023-01-15T04:47:32.350Z,99415.34
2023-01-15T04:50:33.929Z,99421.97
2023-01-15T04:53:35.930Z,99419.50
2023-01-15T04:56:40.716Z,99420.59
2023-01-15T04:59:42.419Z,99419.75
2023-01-15T05:02:44.622Z,99421.97
2023-01-15T05:05:47.369Z,99423.53
2023-01-15T05:08:50.155Z,99414.25
2023-01-15T05:11:51.632Z,99417.88
2023-01-15T05:14:54.443Z,99439.19
2023-01-15T05:17:57.042Z,99430.41
2023-01-15T05:20:59.804Z,99420.06
2023-01-15T05:24:07.111Z,99424.41
2023-01-15T05:27:08.642Z,99415.69
2023-01-15T05:30:11.518Z,99419.44
2023-01-15T05:33:14.009Z,99410.78
2023-01-15T05:36:18.346Z,99419.25
2023-01-15T05:39:21.117Z,99418.13
2023-01-15T05:42:22.800Z,99420.28
2023-01-15T05:45:25.712Z,99412.13
2023-01-15T05:48:28.433Z,99400.97
2023-01-15T05:54:52.612Z,99398.75
2023-01-15T05:57:54.442Z,99391.66
2023-01-15T06:00:57.594Z,99389.25
2023-01-15T06:04:00.895Z,99388.66
2023-01-15T06:07:03.872Z,99393.56
2023-01-15T06:10:07.989Z,99386.28
2023-01-15T06:13:09.270Z,99368.84
2023-01-15T06:16:12.730Z,99369.41
2023-01-15T06:19:14.737Z,99387.97
2023-01-15T06:22:18.691Z,99377.63
2023-01-15T06:25:21.243Z,99394.53
2023-01-15T06:28:22.574Z,99386.88
2023-01-15T06:31:27.349Z,99396.69
2023-01-15T06:34:29.549Z,99392.06
2023-01-15T06:37:32.124Z,99395.81
2023-01-15T06:40:33.437Z,99409.44
2023-01-15T06:43:53.967Z,99414.31
2023-01-15T06:47:14.640Z,99416.78
2023-01-15T06:50:17.368Z,99421.41
2023-01-15T06:53:18.797Z,99423.06
2023-01-15T06:56:21.366Z,99430.75
2023-01-15T06:59:22.904Z,99418.78
2023-01-15T07:02:24.250Z,99415.50
2023-01-15T07:22:37.862Z,99426.00
2023-01-15T07:25:39.349Z,99425.69
2023-01-15T07:28:41.474Z,99434.91
2023-01-15T07:31:43.064Z,99441.00
2023-01-15T07:34:45.701Z,99434.75
2023-01-15T07:37:51.644Z,99449.66
2023-01-15T07:41:11.527Z,99446.94
2023-01-15T07:44:31.612Z,99446.19
2023-01-15T07:47:52.394Z,99453.81
2023-01-15T07:50:53.715Z,99446.78
2023-01-15T07:53:55.942Z,99457.78
2023-01-15T07:56:57.415Z,99460.72
2023-01-15T07:59:59.972Z,99457.84
2023-01-15T08:03:02.767Z,99451.56
2023-01-15T08:06:05.532Z,99463.03
2023-01-15T08:09:07.581Z,99464.75
2023-01-15T08:12:30.124Z,99442.31
2023-01-15T08:15:35.925Z,99444.31
2023-01-15T08:18:37.252Z,99431.28
2023-01-15T08:21:40.024Z,99428.94
2023-01-15T08:24:43.328Z,99429.22
2023-01-15T08:27:46.542Z,99438.03
2023-01-15T08:30:49.087Z,99439.03
2023-01-15T08:33:50.593Z,99452.09
2023-01-15T08:36:59.185Z,99452.19
2023-01-15T08:40:02.467Z,99452.72
2023-01-15T08:43:03.776Z,99463.03
2023-01-15T08:46:06.934Z,99467.16
2023-01-15T08:49:09.502Z,99466.47
2023-01-15T08:52:10.876Z,99470.56
2023-01-15T08:55:14.111Z,99456.84
2023-01-15T08:58:15.794Z,99459.31
2023-01-15T09:01:18.429Z,99473.88
2023-01-15T09:04:21.200Z,99479.00
2023-01-15T09:07:23.771Z,99478.50
2023-01-15T09:10:25.843Z,99486.19
2023-01-15T09:13:28.404Z,99478.53
2023-01-15T09:19:52.253Z,99488.38
2023-01-15T09:22:53.574Z,99492.47
2023-01-15T09:25:58.508Z,99484.63
2023-01-15T09:29:00.592Z,99477.44
2023-01-15T09:32:03.992Z,99497.31
2023-01-15T09:35:06.184Z,99497.16
2023-01-15T09:38:07.598Z,99496.69
2023-01-15T09:41:32.770Z,99502.00
2023-01-15T09:44:44.956Z,99499.88
2023-01-15T09:48:01.497Z,99502.13
2023-01-15T09:51:12.685Z,99492.06
2023-01-15T09:54:27.211Z,99493.41
2023-01-15T09:57:30.080Z,99490.44
2023-01-15T10:00:39.040Z,99493.56
2023-01-15T10:03:46.078Z,99503.66
2023-01-15T10:06:54.526Z,99495.75
2023-01-15T10:13:32.350Z,99498.50
2023-01-15T10:16:33.674Z,99488.19
2023-01-15T10:19:44.397Z,99493.84
2023-01-15T10:23:02.449Z,99489.22
2023-01-15T10:26:19.259Z,99476.19
2023-01-15T10:29:31.664Z,99481.66
2023-01-15T10:33:01.132Z,99480.63
2023-01-15T10:36:08.313Z,99483.94
2023-01-15T10:39:16.639Z,99490.19
2023-01-15T10:42:33.486Z,99482.00
2023-01-15T10:45:42.502Z,99483.34
2023-01-15T10:48:47.319Z,99489.63
2023-01-15T10:51:52.982Z,99492.94
2023-01-15T10:55:03.289Z,99488.84
2023-01-15T10:58:14.336Z,99491.09
2023-01-15T11:01:20.877Z,99494.66
2023-01-15T11:04:24.461Z,99492.94
2023-01-15T11:07:35.529Z,99502.03
2023-01-15T11:10:40.661Z,99502.56
2023-01-15T11:14:11.429Z,99502.22
2023-01-15T11:17:33.755Z,99501.38
2023-01-15T11:20:42.380Z,99492.69
2023-01-15T11:27:07.803Z,99490.19
2023-01-15T11:30:26.664Z,99495.69
2023-01-15T11:33:31.223Z,99485.03
2023-01-15T11:36:33.850Z,99491.31
2023-01-15T11:39:35.583Z,99486.09
2023-01-15T11:42:56.096Z,99483.94
2023-01-15T11:46:15.950Z,99484.50
2023-01-15T11:49:40.404Z,99477.16
2023-01-15T11:52:46.128Z,99483.47
2023-01-15T11:55:53.123Z,99483.94
2023-01-15T11:58:58.605Z,99480.09
2023-01-15T12:02:04.501Z,99483.94
2023-01-15T12:05:16.566Z,99491.84
2023-01-15T12:08:31.903Z,99489.66
2023-01-15T12:11:58.546Z,99481.75
2023-01-15T12:15:12.468Z,99482.38
2023-01-15T12:18:43.577Z,99491.59
2023-01-15T12:22:03.261Z,99490.22
2023-01-15T12:25:24.268Z,99496.56
2023-01-15T12:28:33.069Z,99490.28
2023-01-15T12:31:38.975Z,99474.19
2023-01-15T12:34:47.329Z,99473.13
2023-01-15T12:37:55.631Z,99463.53
2023-01-15T12:41:03.915Z,99459.19
2023-01-15T12:44:28.719Z,99453.44
2023-01-15T12:47:35.876Z,99452.34
2023-01-15T12:50:44.226Z,99457.00
2023-01-15T12:53:51.238Z,99473.66
2023-01-15T12:57:00.089Z,99454.81
2023-01-15T13:00:07.734Z,99462.66
2023-01-15T13:03:24.760Z,99479.09
2023-01-15T13:06:27.893Z,99468.38
2023-01-15T13:09:38.431Z,99472.84
2023-01-15T13:12:40.231Z,99474.22
2023-01-15T13:16:04.276Z,99476.94
2023-01-15T13:19:32.361Z,99469.00
2023-01-15T13:22:45.925Z,99460.50
2023-01-15T13:26:14.091Z,99455.88
2023-01-15T13:29:24.982Z,99458.53
2023-01-15T13:32:29.183Z,99451.72
2023-01-15T13:35:34.487Z,99476.28
2023-01-15T13:38:40.783Z,99476.03
2023-01-15T13:42:01.815Z,99464.28
2023-01-15T13:45:28.309Z,99453.63
2023-01-15T13:48:34.593Z,99460.72
2023-01-15T13:51:39.810Z,99442.09
2023-01-15T13:54:42.198Z,99471.84
2023-01-15T14:01:22.906Z,99479.31
2023-01-15T14:04:36.146Z,99489.63
2023-01-15T14:07:41.994Z,99493.69
2023-01-15T14:10:44.371Z,99507.88
2023-01-15T14:14:31.217Z,99510.88
2023-01-15T14:18:02.776Z,99521.06
2023-01-15T14:21:31.250Z,99532.69
2023-01-15T14:25:09.549Z,99523.63
2023-01-15T14:28:40.904Z,99518.03
2023-01-15T14:31:51.591Z,99531.41
2023-01-15T14:34:57.880Z,99540.91
2023-01-15T14:38:05.335Z,99553.22
2023-01-15T14:41:08.485Z,99566.06
2023-01-15T14:44:10.870Z,99559.56
2023-01-15T14:47:26.890Z,99556.19
2023-01-15T14:50:40.868Z,99570.66
2023-01-15T14:53:45.741Z,99570.13
2023-01-15T14:56:51.528Z,99584.50
2023-01-15T14:59:58.880Z,99563.81
2023-01-15T15:03:02.080Z,99562.88
2023-01-15T15:06:07.599Z,99554.41
2023-01-15T15:09:13.438Z,99567.78
2023-01-15T15:12:25.318Z,99575.59
2023-01-15T15:15:38.369Z,99582.19
2023-01-15T15:18:45.224Z,99583.88
2023-01-15T15:21:48.104Z,99573.13
2023-01-15T15:24:55.169Z,99582.97
2023-01-15T15:28:05.969Z,99573.50
2023-01-15T15:31:10.055Z,99583.22
2023-01-15T15:34:16.975Z,99565.22
2023-01-15T15:37:20.325Z,99564.63
2023-01-15T15:40:33.134Z,99572.00
2023-01-15T15:44:02.189Z,99569.22
2023-01-15T15:47:37.496Z,99563.84
2023-01-15T15:50:41.226Z,99559.84
2023-01-15T15:53:42.736Z,99566.97
2023-01-15T15:56:52.871Z,99569.22
2023-01-15T15:59:54.675Z,99569.03
2023-01-15T16:03:01.728Z,99562.66
2023-01-15T16:06:07.892Z,99545.31
2023-01-15T16:09:09.835Z,99554.13
2023-01-15T16:12:15.496Z,99543.84
2023-01-15T16:15:19.305Z,99548.13
2023-01-15T16:18:25.534Z,99540.16
2023-01-15T16:21:33.440Z,99544.56
2023-01-15T16:24:40.463Z,99564.31
2023-01-15T16:27:43.439Z,99553.47
2023-01-15T16:30:44.899Z,99558.34
2023-01-15T16:33:49.307Z,99550.47
2023-01-15T16:36:51.477Z,99560.03
2023-01-15T16:39:54.802Z,99544.19
2023-01-15T16:43:07.264Z,99556.34
2023-01-15T16:46:19.974Z,99552.63
2023-01-15T16:52:52.677Z,99546.41
2023-01-15T16:55:56.283Z,99543.66
2023-01-15T16:58:58.833Z,99541.84
2023-01-15T17:02:07.409Z,99540.16
2023-01-15T17:05:22.821Z,99554.81
2023-01-15T17:08:35.064Z,99544.03
2023-01-15T17:11:37.855Z,99551.25
2023-01-15T17:14:39.392Z,99547.91
2023-01-15T17:17:41.039Z,99558.78
2023-01-15T17:20:44.617Z,99556.97
2023-01-15T17:23:47.472Z,99545.03
2023-01-15T17:26:50.423Z,99555.22
2023-01-15T17:29:52.309Z,99555.84
2023-01-15T17:32:53.888Z,99548.56
2023-01-15T17:35:58.862Z,99564.97
2023-01-15T17:39:02.073Z,99580.91
2023-01-15T17:42:14.097Z,99566.28
2023-01-15T17:45:19.226Z,99558.84
2023-01-15T17:48:20.570Z,99574.13
2023-01-15T17:51:22.891Z,99571.69
2023-01-15T17:54:39.455Z,99570.56
2023-01-15T17:58:00.288Z,99561.56
2023-01-15T18:01:28.838Z,99572.53
2023-01-15T18:04:51.764Z,99584.84
2023-01-15T18:07:57.479Z,99564.97
2023-01-15T18:11:02.542Z,99577.34
2023-01-15T18:14:05.213Z,99568.31
2023-01-15T18:17:06.859Z,99567.44
2023-01-15T18:20:11.123Z,99572.19
2023-01-15T18:23:12.408Z,99583.59
2023-01-15T18:26:15.999Z,99573.31
2023-01-15T18:32:39.875Z,99577.28
2023-01-15T18:35:42.414Z,99579.16
2023-01-15T18:38:44.106Z,99568.25
2023-01-15T18:42:04.284Z,99577.13
2023-01-15T18:45:24.871Z,99580.97
2023-01-15T18:48:26.169Z,99594.66
2023-01-15T18:51:29.177Z,99579.88
2023-01-15T18:54:30.608Z,99586.78
2023-01-15T18:57:34.589Z,99575.38
2023-01-15T19:00:35.944Z,99582.44
2023-01-15T19:03:38.624Z,99576.44
2023-01-15T19:06:41.955Z,99574.31
2023-01-15T19:09:43.707Z,99576.22
2023-01-15T19:12:47.788Z,99581.03
2023-01-15T19:16:18.968Z,99584.06
2023-01-15T19:19:20.575Z,99582.22
2023-01-15T19:22:41.302Z,99577.78
2023-01-15T19:25:44.330Z,99572.09
2023-01-15T19:28:46.365Z,99589.22
2023-01-15T19:31:48.991Z,99582.06
2023-01-15T19:34:54.708Z,99583.25
2023-01-15T19:37:57.651Z,99574.56
2023-01-15T19:41:20.553Z,99591.81
2023-01-15T19:44:42.099Z,99591.28
2023-01-15T19:48:01.271Z,99602.00
2023-01-15T19:51:04.354Z,99586.41
2023-01-15T19:54:06.465Z,99587.66
2023-01-15T19:57:09.401Z,99590.72
2023-01-15T20:00:15.098Z,99594.44
2023-01-15T20:03:16.885Z,99581.66
2023-01-15T20:06:19.770Z,99573.56
2023-01-15T20:09:22.243Z,99597.81
2023-01-15T20:12:43.044Z,99595.69
2023-01-15T20:15:48.502Z,99596.91
2023-01-15T20:18:50.517Z,99593.34
2023-01-15T20:21:54.074Z,99600.69
2023-01-15T20:24:56.444Z,99602.97
2023-01-15T20:28:00.657Z,99604.38
2023-01-15T20:31:03.269Z,99618.00
2023-01-15T20:34:05.832Z,99620.59
2023-01-15T20:37:08.690Z,99601.66
2023-01-15T20:40:11.688Z,99603.56
2023-01-15T20:43:31.302Z,99609.22
2023-01-15T20:46:33.239Z,99607.63
2023-01-15T20:49:34.788Z,99614.97
2023-01-15T20:52:37.795Z,99620.94
2023-01-15T20:55:54.682Z,99610.09
2023-01-15T20:58:59.320Z,99605.28
2023-01-15T21:02:01.344Z,99605.19
2023-01-15T21:05:03.981Z,99613.63
2023-01-15T21:08:06.632Z,99614.78
2023-01-15T21:11:07.939Z,99615.53
2023-01-15T21:14:10.454Z,99618.59
2023-01-15T21:17:12.476Z,99604.69
2023-01-15T21:20:17.327Z,99611.69
2023-01-15T21:23:18.703Z,99608.97
2023-01-15T21:26:21.293Z,99611.34
2023-01-15T21:29:25.134Z,99604.78
2023-01-15T21:32:27.622Z,99612.63
2023-01-15T21:35:30.487Z,99609.09
2023-01-15T21:38:32.096Z,99618.63
2023-01-15T21:41:52.789Z,99615.53
2023-01-15T21:44:55.370Z,99628.31
2023-01-15T21:47:59.699Z,99620.25
2023-01-15T21:51:05.842Z,99618.19
2023-01-15T21:54:07.269Z,99633.47
2023-01-15T21:57:10.754Z,99635.75
2023-01-15T22:00:14.302Z,99622.88
2023-01-15T22:03:18.526Z,99623.59
2023-01-15T22:06:22.418Z,99631.59
2023-01-15T22:09:24.084Z,99630.03
2023-01-15T22:12:26.846Z,99624.84
2023-01-15T22:15:29.678Z,99629.41
2023-01-15T22:18:32.626Z,99617.56
2023-01-15T22:21:36.487Z,99625.16
2023-01-15T22:24:39.897Z,99627.25
2023-01-15T22:27:44.055Z,99626.50
2023-01-15T22:30:47.065Z,99619.34
2023-01-15T22:33:50.688Z,99619.81
2023-01-15T22:36:54.519Z,99622.94
2023-01-15T22:39:56.135Z,99621.59
2023-01-15T22:43:00.772Z,99624.34
2023-01-15T22:46:11.079Z,99615.28
2023-01-15T22:49:13.277Z,99624.28
2023-01-15T22:52:16.700Z,99626.78
2023-01-15T22:55:18.295Z,99619.06
2023-01-15T23:01:44.371Z,99623.50
2023-01-15T23:04:47.770Z,99613.97
2023-01-15T23:07:51.047Z,99623.13
2023-01-15T23:10:52.499Z,99632.31
2023-01-15T23:13:54.155Z,99625.72
2023-01-15T23:16:56.983Z,99623.59
2023-01-15T23:19:59.381Z,99635.78
2023-01-15T23:23:02.596Z,99632.59
2023-01-15T23:26:05.289Z,99626.38
2023-01-15T23:29:08.653Z,99627.03
2023-01-15T23:32:10.353Z,99628.03
2023-01-15T23:35:13.942Z,99628.59
2023-01-15T23:38:16.835Z,99614.75
2023-01-15T23:41:41.457Z,99629.44
2023-01-15T23:44:58.816Z,99621.09
2023-01-15T23:48:01.689Z,99621.44
2023-01-15T23:51:04.530Z,99625.31
2023-01-15T23:54:09.207Z,99620.75
2023-01-15T23:57:10.883Z,99622.34
